sensor_id;sensor_type;location;lat;lon;timestamp;P1;durP1;ratioP1;P2;durP2;ratioP2
64037;SDS011;54641;50.168;8.492;2023-07-13T00:00:03;7.00;;;1.70;;
64037;SDS011;54641;50.168;8.492;2023-07-13T00:02:40;3.50;;;1.50;;
64037;SDS011;54641;50.168;8.492;2023-07-13T00:05:11;4.20;;;1.70;;
64037;SDS011;54641;50.168;8.492;2023-07-13T00:07:41;5.90;;;1.50;;
64037;SDS011;54641;50.168;8.492;2023-07-13T00:10:14;3.00;;;1.50;;
64037;SDS011;54641;50.168;8.492;2023-07-13T00:12:44;5.10;;;1.50;;
64037;SDS011;54641;50.168;8.492;2023-07-13T00:15:16;5.90;;;1.40;;
64037;SDS011;54641;50.168;8.492;2023-07-13T00:17:50;4.20;;;1.40;;
64037;SDS011;54641;50.168;8.492;2023-07-13T00:20:21;3.60;;;1.60;;
64037;SDS011;54641;50.168;8.492;2023-07-13T00:22:53;2.80;;;1.50;;
64037;SDS011;54641;50.168;8.492;2023-07-13T00:25:23;4.70;;;2.00;;
64037;SDS011;54641;50.168;8.492;2023-07-13T00:27:55;3.20;;;1.50;;
64037;SDS011;54641;50.168;8.492;2023-07-13T00:30:25;5.40;;;1.50;;
64037;SDS011;54641;50.168;8.492;2023-07-13T00:32:57;3.00;;;1.40;;
64037;SDS011;54641;50.168;8.492;2023-07-13T00:35:43;5.30;;;1.40;;
64037;SDS011;54641;50.168;8.492;2023-07-13T00:38:13;3.00;;;1.70;;
64037;SDS011;54641;50.168;8.492;2023-07-13T00:40:44;3.70;;;1.80;;
64037;SDS011;54641;50.168;8.492;2023-07-13T00:43:15;5.70;;;1.30;;
64037;SDS011;54641;50.168;8.492;2023-07-13T00:48:47;4.40;;;1.40;;
64037;SDS011;54641;50.168;8.492;2023-07-13T00:51:19;4.60;;;1.60;;
64037;SDS011;54641;50.168;8.492;2023-07-13T00:53:53;5.70;;;1.30;;
64037;SDS011;54641;50.168;8.492;2023-07-13T00:56:25;4.30;;;1.60;;
64037;SDS011;54641;50.168;8.492;2023-07-13T00:58:56;3.80;;;1.40;;
64037;SDS011;54641;50.168;8.492;2023-07-13T01:01:28;4.10;;;1.20;;
64037;SDS011;54641;50.168;8.492;2023-07-13T01:03:59;4.00;;;1.60;;
64037;SDS011;54641;50.168;8.492;2023-07-13T01:06:29;6.10;;;1.50;;
64037;SDS011;54641;50.168;8.492;2023-07-13T01:09:00;3.50;;;1.80;;
64037;SDS011;54641;50.168;8.492;2023-07-13T01:11:31;4.50;;;1.30;;
64037;SDS011;54641;50.168;8.492;2023-07-13T01:14:03;2.70;;;1.50;;
64037;SDS011;54641;50.168;8.492;2023-07-13T01:16:34;3.60;;;1.40;;
64037;SDS011;54641;50.168;8.492;2023-07-13T01:19:07;6.30;;;1.50;;
64037;SDS011;54641;50.168;8.492;2023-07-13T01:21:41;4.20;;;1.60;;
64037;SDS011;54641;50.168;8.492;2023-07-13T01:24:12;3.60;;;1.20;;
64037;SDS011;54641;50.168;8.492;2023-07-13T01:26:42;4.10;;;1.50;;
64037;SDS011;54641;50.168;8.492;2023-07-13T01:29:13;3.70;;;1.50;;
64037;SDS011;54641;50.168;8.492;2023-07-13T01:31:43;4.00;;;1.50;;
64037;SDS011;54641;50.168;8.492;2023-07-13T01:34:14;3.50;;;1.30;;
64037;SDS011;54641;50.168;8.492;2023-07-13T01:36:44;4.30;;;1.30;;
64037;SDS011;54641;50.168;8.492;2023-07-13T01:39:14;2.90;;;1.20;;
64037;SDS011;54641;50.168;8.492;2023-07-13T01:41:45;3.40;;;1.40;;
64037;SDS011;54641;50.168;8.492;2023-07-13T01:44:15;5.60;;;1.40;;
64037;SDS011;54641;50.168;8.492;2023-07-13T01:46:47;4.30;;;1.40;;
64037;SDS011;54641;50.168;8.492;2023-07-13T01:49:17;4.50;;;1.20;;
64037;SDS011;54641;50.168;8.492;2023-07-13T01:51:48;3.80;;;1.20;;
64037;SDS011;54641;50.168;8.492;2023-07-13T01:54:19;3.20;;;1.20;;
64037;SDS011;54641;50.168;8.492;2023-07-13T01:56:51;3.70;;;1.10;;
64037;SDS011;54641;50.168;8.492;2023-07-13T01:59:21;4.20;;;1.30;;
64037;SDS011;54641;50.168;8.492;2023-07-13T02:01:52;3.30;;;1.40;;
64037;SDS011;54641;50.168;8.492;2023-07-13T02:04:22;4.70;;;1.40;;
64037;SDS011;54641;50.168;8.492;2023-07-13T02:06:53;3.30;;;1.30;;
64037;SDS011;54641;50.168;8.492;2023-07-13T02:09:24;4.80;;;1.20;;
64037;SDS011;54641;50.168;8.492;2023-07-13T02:11:54;3.50;;;1.50;;
64037;SDS011;54641;50.168;8.492;2023-07-13T02:14:30;4.10;;;1.40;;
64037;SDS011;54641;50.168;8.492;2023-07-13T02:17:01;3.70;;;1.30;;
64037;SDS011;54641;50.168;8.492;2023-07-13T02:19:32;3.60;;;1.50;;
64037;SDS011;54641;50.168;8.492;2023-07-13T02:22:02;4.20;;;1.70;;
64037;SDS011;54641;50.168;8.492;2023-07-13T02:24:33;4.90;;;1.40;;
64037;SDS011;54641;50.168;8.492;2023-07-13T02:27:04;3.60;;;1.00;;
64037;SDS011;54641;50.168;8.492;2023-07-13T02:29:35;5.20;;;1.20;;
64037;SDS011;54641;50.168;8.492;2023-07-13T02:32:06;2.30;;;1.10;;
64037;SDS011;54641;50.168;8.492;2023-07-13T02:34:37;2.90;;;1.10;;
64037;SDS011;54641;50.168;8.492;2023-07-13T02:37:07;3.70;;;1.70;;
64037;SDS011;54641;50.168;8.492;2023-07-13T02:39:37;3.50;;;1.00;;
64037;SDS011;54641;50.168;8.492;2023-07-13T02:42:07;2.50;;;1.20;;
64037;SDS011;54641;50.168;8.492;2023-07-13T02:44:38;5.50;;;1.30;;
64037;SDS011;54641;50.168;8.492;2023-07-13T02:47:08;2.60;;;0.90;;
64037;SDS011;54641;50.168;8.492;2023-07-13T02:49:39;4.00;;;1.00;;
64037;SDS011;54641;50.168;8.492;2023-07-13T02:52:09;1.90;;;0.80;;
64037;SDS011;54641;50.168;8.492;2023-07-13T02:54:39;4.00;;;1.00;;
64037;SDS011;54641;50.168;8.492;2023-07-13T02:57:10;3.20;;;1.00;;
64037;SDS011;54641;50.168;8.492;2023-07-13T02:59:41;3.30;;;1.10;;
64037;SDS011;54641;50.168;8.492;2023-07-13T03:02:11;3.20;;;0.90;;
64037;SDS011;54641;50.168;8.492;2023-07-13T03:04:42;3.50;;;1.20;;
64037;SDS011;54641;50.168;8.492;2023-07-13T03:07:13;4.20;;;1.30;;
64037;SDS011;54641;50.168;8.492;2023-07-13T03:09:43;3.30;;;1.30;;
64037;SDS011;54641;50.168;8.492;2023-07-13T03:12:14;3.50;;;1.20;;
64037;SDS011;54641;50.168;8.492;2023-07-13T03:14:44;3.10;;;1.90;;
64037;SDS011;54641;50.168;8.492;2023-07-13T03:17:15;4.70;;;1.50;;
64037;SDS011;54641;50.168;8.492;2023-07-13T03:19:45;2.10;;;1.30;;
64037;SDS011;54641;50.168;8.492;2023-07-13T03:22:18;4.90;;;1.20;;
64037;SDS011;54641;50.168;8.492;2023-07-13T03:24:51;4.10;;;1.30;;
64037;SDS011;54641;50.168;8.492;2023-07-13T03:27:23;1.80;;;0.80;;
64037;SDS011;54641;50.168;8.492;2023-07-13T03:29:55;3.90;;;1.80;;
64037;SDS011;54641;50.168;8.492;2023-07-13T03:32:26;3.70;;;1.20;;
64037;SDS011;54641;50.168;8.492;2023-07-13T03:34:56;3.70;;;1.20;;
64037;SDS011;54641;50.168;8.492;2023-07-13T03:37:27;5.10;;;1.30;;
64037;SDS011;54641;50.168;8.492;2023-07-13T03:39:58;2.60;;;1.10;;
64037;SDS011;54641;50.168;8.492;2023-07-13T03:42:30;4.60;;;1.20;;
64037;SDS011;54641;50.168;8.492;2023-07-13T03:45:00;2.20;;;0.90;;
64037;SDS011;54641;50.168;8.492;2023-07-13T03:47:31;3.00;;;1.20;;
64037;SDS011;54641;50.168;8.492;2023-07-13T03:50:03;3.70;;;1.20;;
64037;SDS011;54641;50.168;8.492;2023-07-13T03:52:35;3.90;;;1.10;;
64037;SDS011;54641;50.168;8.492;2023-07-13T03:55:07;4.40;;;1.30;;
64037;SDS011;54641;50.168;8.492;2023-07-13T03:57:38;6.50;;;1.40;;
64037;SDS011;54641;50.168;8.492;2023-07-13T04:00:09;6.20;;;1.20;;
64037;SDS011;54641;50.168;8.492;2023-07-13T04:02:43;5.10;;;1.50;;
64037;SDS011;54641;50.168;8.492;2023-07-13T04:05:16;6.70;;;1.40;;
64037;SDS011;54641;50.168;8.492;2023-07-13T04:07:46;4.10;;;1.20;;
64037;SDS011;54641;50.168;8.492;2023-07-13T04:10:17;2.60;;;1.30;;
64037;SDS011;54641;50.168;8.492;2023-07-13T04:12:47;4.90;;;1.50;;
64037;SDS011;54641;50.168;8.492;2023-07-13T04:15:17;4.20;;;1.50;;
64037;SDS011;54641;50.168;8.492;2023-07-13T04:17:48;3.80;;;1.90;;
64037;SDS011;54641;50.168;8.492;2023-07-13T04:20:18;4.90;;;1.50;;
64037;SDS011;54641;50.168;8.492;2023-07-13T04:22:49;4.00;;;1.40;;
64037;SDS011;54641;50.168;8.492;2023-07-13T04:25:21;4.00;;;1.40;;
64037;SDS011;54641;50.168;8.492;2023-07-13T04:27:52;2.80;;;1.30;;
64037;SDS011;54641;50.168;8.492;2023-07-13T04:30:22;2.90;;;1.80;;
64037;SDS011;54641;50.168;8.492;2023-07-13T04:32:54;3.90;;;1.30;;
64037;SDS011;54641;50.168;8.492;2023-07-13T04:35:24;3.80;;;1.70;;
64037;SDS011;54641;50.168;8.492;2023-07-13T04:37:55;4.40;;;1.10;;
64037;SDS011;54641;50.168;8.492;2023-07-13T04:40:25;2.80;;;1.20;;
64037;SDS011;54641;50.168;8.492;2023-07-13T04:42:56;2.70;;;1.00;;
64037;SDS011;54641;50.168;8.492;2023-07-13T04:45:27;4.20;;;1.20;;
64037;SDS011;54641;50.168;8.492;2023-07-13T04:47:58;3.10;;;2.30;;
64037;SDS011;54641;50.168;8.492;2023-07-13T04:50:28;4.10;;;1.40;;
64037;SDS011;54641;50.168;8.492;2023-07-13T04:52:59;4.50;;;1.20;;
64037;SDS011;54641;50.168;8.492;2023-07-13T04:55:32;4.50;;;1.30;;
64037;SDS011;54641;50.168;8.492;2023-07-13T04:58:02;3.90;;;1.10;;
64037;SDS011;54641;50.168;8.492;2023-07-13T05:00:33;4.30;;;1.30;;
64037;SDS011;54641;50.168;8.492;2023-07-13T05:03:04;3.40;;;1.20;;
64037;SDS011;54641;50.168;8.492;2023-07-13T05:05:34;4.60;;;1.40;;
64037;SDS011;54641;50.168;8.492;2023-07-13T05:08:04;3.40;;;1.00;;
64037;SDS011;54641;50.168;8.492;2023-07-13T05:10:35;4.00;;;0.90;;
64037;SDS011;54641;50.168;8.492;2023-07-13T05:13:06;2.60;;;1.10;;
64037;SDS011;54641;50.168;8.492;2023-07-13T05:15:37;3.60;;;1.00;;
64037;SDS011;54641;50.168;8.492;2023-07-13T05:18:07;4.30;;;1.30;;
64037;SDS011;54641;50.168;8.492;2023-07-13T05:20:37;2.70;;;1.30;;
64037;SDS011;54641;50.168;8.492;2023-07-13T05:23:08;3.50;;;1.30;;
64037;SDS011;54641;50.168;8.492;2023-07-13T05:25:38;3.10;;;1.10;;
64037;SDS011;54641;50.168;8.492;2023-07-13T05:28:09;4.90;;;1.30;;
64037;SDS011;54641;50.168;8.492;2023-07-13T05:30:39;2.70;;;1.00;;
64037;SDS011;54641;50.168;8.492;2023-07-13T05:33:09;2.70;;;1.30;;
64037;SDS011;54641;50.168;8.492;2023-07-13T05:35:40;3.90;;;1.30;;
64037;SDS011;54641;50.168;8.492;2023-07-13T05:38:10;3.10;;;0.90;;
64037;SDS011;54641;50.168;8.492;2023-07-13T05:40:41;2.40;;;0.80;;
64037;SDS011;54641;50.168;8.492;2023-07-13T05:43:12;3.10;;;1.00;;
64037;SDS011;54641;50.168;8.492;2023-07-13T05:45:43;3.70;;;1.10;;
64037;SDS011;54641;50.168;8.492;2023-07-13T05:48:13;5.20;;;1.70;;
64037;SDS011;54641;50.168;8.492;2023-07-13T05:50:44;2.40;;;1.00;;
64037;SDS011;54641;50.168;8.492;2023-07-13T05:53:14;3.00;;;1.10;;
64037;SDS011;54641;50.168;8.492;2023-07-13T05:55:48;3.30;;;0.90;;
64037;SDS011;54641;50.168;8.492;2023-07-13T05:58:21;2.60;;;1.00;;
64037;SDS011;54641;50.168;8.492;2023-07-13T06:00:57;2.80;;;0.90;;
64037;SDS011;54641;50.168;8.492;2023-07-13T06:03:29;2.60;;;0.90;;
64037;SDS011;54641;50.168;8.492;2023-07-13T06:05:59;2.60;;;0.90;;
64037;SDS011;54641;50.168;8.492;2023-07-13T06:08:30;3.60;;;1.30;;
64037;SDS011;54641;50.168;8.492;2023-07-13T06:11:05;2.30;;;0.90;;
64037;SDS011;54641;50.168;8.492;2023-07-13T06:13:37;3.60;;;0.90;;
64037;SDS011;54641;50.168;8.492;2023-07-13T06:16:07;2.40;;;0.90;;
64037;SDS011;54641;50.168;8.492;2023-07-13T06:18:38;1.60;;;0.80;;
64037;SDS011;54641;50.168;8.492;2023-07-13T06:21:09;3.60;;;1.00;;
64037;SDS011;54641;50.168;8.492;2023-07-13T06:23:41;4.10;;;1.00;;
64037;SDS011;54641;50.168;8.492;2023-07-13T06:26:13;3.10;;;1.00;;
64037;SDS011;54641;50.168;8.492;2023-07-13T06:28:43;2.50;;;0.70;;
64037;SDS011;54641;50.168;8.492;2023-07-13T06:31:13;2.80;;;0.90;;
64037;SDS011;54641;50.168;8.492;2023-07-13T06:33:44;2.00;;;0.80;;
64037;SDS011;54641;50.168;8.492;2023-07-13T06:36:14;2.00;;;0.80;;
64037;SDS011;54641;50.168;8.492;2023-07-13T06:38:44;2.60;;;0.70;;
64037;SDS011;54641;50.168;8.492;2023-07-13T06:41:14;1.90;;;0.70;;
64037;SDS011;54641;50.168;8.492;2023-07-13T06:43:49;1.80;;;1.00;;
64037;SDS011;54641;50.168;8.492;2023-07-13T06:46:21;2.40;;;0.70;;
64037;SDS011;54641;50.168;8.492;2023-07-13T06:48:52;1.90;;;0.90;;
64037;SDS011;54641;50.168;8.492;2023-07-13T06:51:22;3.60;;;0.90;;
64037;SDS011;54641;50.168;8.492;2023-07-13T06:53:53;2.20;;;0.80;;
64037;SDS011;54641;50.168;8.492;2023-07-13T06:56:24;2.20;;;0.80;;
64037;SDS011;54641;50.168;8.492;2023-07-13T06:58:55;2.30;;;1.00;;
64037;SDS011;54641;50.168;8.492;2023-07-13T07:01:25;3.50;;;1.10;;
64037;SDS011;54641;50.168;8.492;2023-07-13T07:10:44;2.70;;;0.90;;
64037;SDS011;54641;50.168;8.492;2023-07-13T07:13:14;3.60;;;0.90;;
64037;SDS011;54641;50.168;8.492;2023-07-13T07:15:44;1.90;;;0.90;;
64037;SDS011;54641;50.168;8.492;2023-07-13T07:18:15;3.30;;;0.90;;
64037;SDS011;54641;50.168;8.492;2023-07-13T07:20:45;4.60;;;0.90;;
64037;SDS011;54641;50.168;8.492;2023-07-13T07:23:15;1.90;;;0.80;;
64037;SDS011;54641;50.168;8.492;2023-07-13T07:25:46;2.10;;;0.70;;
64037;SDS011;54641;50.168;8.492;2023-07-13T07:28:17;1.40;;;0.70;;
64037;SDS011;54641;50.168;8.492;2023-07-13T07:30:52;3.20;;;0.70;;
64037;SDS011;54641;50.168;8.492;2023-07-13T07:36:11;2.80;;;0.70;;
64037;SDS011;54641;50.168;8.492;2023-07-13T07:38:44;3.00;;;0.80;;
64037;SDS011;54641;50.168;8.492;2023-07-13T07:41:15;2.80;;;0.80;;
64037;SDS011;54641;50.168;8.492;2023-07-13T07:43:48;1.80;;;0.80;;
64037;SDS011;54641;50.168;8.492;2023-07-13T07:46:18;2.70;;;0.80;;
64037;SDS011;54641;50.168;8.492;2023-07-13T07:48:48;0.70;;;0.60;;
64037;SDS011;54641;50.168;8.492;2023-07-13T07:51:18;2.00;;;0.90;;
64037;SDS011;54641;50.168;8.492;2023-07-13T07:53:49;2.80;;;1.00;;
64037;SDS011;54641;50.168;8.492;2023-07-13T07:56:19;1.40;;;0.80;;
64037;SDS011;54641;50.168;8.492;2023-07-13T07:58:52;2.30;;;0.70;;
64037;SDS011;54641;50.168;8.492;2023-07-13T08:01:25;1.40;;;0.80;;
64037;SDS011;54641;50.168;8.492;2023-07-13T08:03:58;3.60;;;0.80;;
64037;SDS011;54641;50.168;8.492;2023-07-13T08:06:33;4.10;;;1.00;;
64037;SDS011;54641;50.168;8.492;2023-07-13T08:09:12;2.80;;;0.90;;
64037;SDS011;54641;50.168;8.492;2023-07-13T08:11:43;2.60;;;1.10;;
64037;SDS011;54641;50.168;8.492;2023-07-13T08:14:16;2.80;;;1.00;;
64037;SDS011;54641;50.168;8.492;2023-07-13T08:16:46;2.10;;;0.80;;
64037;SDS011;54641;50.168;8.492;2023-07-13T08:19:17;2.10;;;0.90;;
64037;SDS011;54641;50.168;8.492;2023-07-13T08:21:47;2.80;;;1.00;;
64037;SDS011;54641;50.168;8.492;2023-07-13T08:24:18;3.40;;;1.10;;
64037;SDS011;54641;50.168;8.492;2023-07-13T08:26:48;3.00;;;1.40;;
64037;SDS011;54641;50.168;8.492;2023-07-13T08:29:18;2.20;;;1.20;;
64037;SDS011;54641;50.168;8.492;2023-07-13T08:31:48;2.30;;;1.00;;
64037;SDS011;54641;50.168;8.492;2023-07-13T08:34:20;3.20;;;0.80;;
64037;SDS011;54641;50.168;8.492;2023-07-13T08:36:50;3.80;;;1.00;;
64037;SDS011;54641;50.168;8.492;2023-07-13T08:39:20;1.00;;;0.70;;
64037;SDS011;54641;50.168;8.492;2023-07-13T08:41:53;1.90;;;0.80;;
64037;SDS011;54641;50.168;8.492;2023-07-13T08:44:27;2.90;;;1.00;;
64037;SDS011;54641;50.168;8.492;2023-07-13T08:47:03;2.80;;;1.20;;
64037;SDS011;54641;50.168;8.492;2023-07-13T08:49:34;2.90;;;1.10;;
64037;SDS011;54641;50.168;8.492;2023-07-13T08:52:05;3.30;;;0.90;;
64037;SDS011;54641;50.168;8.492;2023-07-13T08:54:41;3.40;;;1.00;;
64037;SDS011;54641;50.168;8.492;2023-07-13T08:57:14;5.10;;;0.80;;
64037;SDS011;54641;50.168;8.492;2023-07-13T08:59:46;3.40;;;1.00;;
64037;SDS011;54641;50.168;8.492;2023-07-13T09:02:20;3.40;;;1.00;;
64037;SDS011;54641;50.168;8.492;2023-07-13T09:04:54;2.60;;;1.00;;
64037;SDS011;54641;50.168;8.492;2023-07-13T09:07:34;1.50;;;0.80;;
64037;SDS011;54641;50.168;8.492;2023-07-13T09:10:13;2.40;;;0.70;;
64037;SDS011;54641;50.168;8.492;2023-07-13T09:12:53;3.90;;;1.00;;
64037;SDS011;54641;50.168;8.492;2023-07-13T09:15:31;2.60;;;0.90;;
64037;SDS011;54641;50.168;8.492;2023-07-13T09:18:04;3.30;;;0.90;;
64037;SDS011;54641;50.168;8.492;2023-07-13T09:20:39;3.50;;;1.20;;
64037;SDS011;54641;50.168;8.492;2023-07-13T09:23:14;2.20;;;0.80;;
64037;SDS011;54641;50.168;8.492;2023-07-13T09:25:46;2.80;;;0.90;;
64037;SDS011;54641;50.168;8.492;2023-07-13T09:28:23;3.00;;;0.90;;
64037;SDS011;54641;50.168;8.492;2023-07-13T09:30:56;3.40;;;0.90;;
64037;SDS011;54641;50.168;8.492;2023-07-13T09:33:30;4.00;;;1.00;;
64037;SDS011;54641;50.168;8.492;2023-07-13T09:36:05;1.80;;;0.60;;
64037;SDS011;54641;50.168;8.492;2023-07-13T09:38:46;2.30;;;1.10;;
64037;SDS011;54641;50.168;8.492;2023-07-13T09:46:39;1.80;;;1.00;;
64037;SDS011;54641;50.168;8.492;2023-07-13T09:49:13;2.30;;;1.00;;
64037;SDS011;54641;50.168;8.492;2023-07-13T09:51:43;1.80;;;0.90;;
64037;SDS011;54641;50.168;8.492;2023-07-13T09:54:20;1.60;;;0.80;;
64037;SDS011;54641;50.168;8.492;2023-07-13T09:56:55;3.40;;;1.00;;
64037;SDS011;54641;50.168;8.492;2023-07-13T09:59:27;1.90;;;0.80;;
64037;SDS011;54641;50.168;8.492;2023-07-13T10:01:59;2.50;;;1.20;;
64037;SDS011;54641;50.168;8.492;2023-07-13T10:04:32;2.90;;;1.20;;
64037;SDS011;54641;50.168;8.492;2023-07-13T10:07:07;3.30;;;1.20;;
64037;SDS011;54641;50.168;8.492;2023-07-13T10:09:56;2.00;;;1.10;;
64037;SDS011;54641;50.168;8.492;2023-07-13T10:12:29;8.30;;;1.20;;
64037;SDS011;54641;50.168;8.492;2023-07-13T10:15:07;2.40;;;1.40;;
64037;SDS011;54641;50.168;8.492;2023-07-13T10:17:51;2.20;;;1.00;;
64037;SDS011;54641;50.168;8.492;2023-07-13T10:22:52;2.20;;;1.20;;
64037;SDS011;54641;50.168;8.492;2023-07-13T10:25:26;2.60;;;1.30;;
64037;SDS011;54641;50.168;8.492;2023-07-13T10:28:03;4.00;;;1.20;;
64037;SDS011;54641;50.168;8.492;2023-07-13T10:30:40;3.60;;;1.20;;
64037;SDS011;54641;50.168;8.492;2023-07-13T10:33:12;2.50;;;1.20;;
64037;SDS011;54641;50.168;8.492;2023-07-13T10:35:43;2.20;;;1.00;;
64037;SDS011;54641;50.168;8.492;2023-07-13T10:38:15;3.10;;;1.30;;
64037;SDS011;54641;50.168;8.492;2023-07-13T10:40:51;3.00;;;1.30;;
64037;SDS011;54641;50.168;8.492;2023-07-13T10:43:23;1.60;;;1.00;;
64037;SDS011;54641;50.168;8.492;2023-07-13T10:45:58;2.30;;;1.10;;
64037;SDS011;54641;50.168;8.492;2023-07-13T10:48:29;3.90;;;1.20;;
64037;SDS011;54641;50.168;8.492;2023-07-13T10:51:02;1.70;;;1.10;;
64037;SDS011;54641;50.168;8.492;2023-07-13T10:53:35;3.70;;;1.40;;
64037;SDS011;54641;50.168;8.492;2023-07-13T10:56:15;3.70;;;1.20;;
64037;SDS011;54641;50.168;8.492;2023-07-13T10:59:00;2.70;;;1.40;;
64037;SDS011;54641;50.168;8.492;2023-07-13T11:01:48;3.20;;;1.20;;
64037;SDS011;54641;50.168;8.492;2023-07-13T11:04:22;1.90;;;1.20;;
64037;SDS011;54641;50.168;8.492;2023-07-13T11:06:57;2.90;;;1.50;;
64037;SDS011;54641;50.168;8.492;2023-07-13T11:09:36;2.90;;;1.40;;
64037;SDS011;54641;50.168;8.492;2023-07-13T11:12:09;3.50;;;1.40;;
64037;SDS011;54641;50.168;8.492;2023-07-13T11:15:06;4.00;;;1.50;;
64037;SDS011;54641;50.168;8.492;2023-07-13T11:17:48;3.70;;;1.40;;
64037;SDS011;54641;50.168;8.492;2023-07-13T11:20:22;2.60;;;1.60;;
64037;SDS011;54641;50.168;8.492;2023-07-13T11:25:59;3.20;;;1.50;;
64037;SDS011;54641;50.168;8.492;2023-07-13T11:28:31;3.50;;;1.60;;
64037;SDS011;54641;50.168;8.492;2023-07-13T11:31:03;2.60;;;1.30;;
64037;SDS011;54641;50.168;8.492;2023-07-13T11:36:36;2.30;;;1.20;;
64037;SDS011;54641;50.168;8.492;2023-07-13T11:39:16;2.40;;;1.10;;
64037;SDS011;54641;50.168;8.492;2023-07-13T11:41:50;4.40;;;1.50;;
64037;SDS011;54641;50.168;8.492;2023-07-13T11:44:23;3.40;;;1.60;;
64037;SDS011;54641;50.168;8.492;2023-07-13T11:46:55;2.80;;;1.50;;
64037;SDS011;54641;50.168;8.492;2023-07-13T11:49:29;3.30;;;1.40;;
64037;SDS011;54641;50.168;8.492;2023-07-13T11:52:00;3.60;;;1.30;;
64037;SDS011;54641;50.168;8.492;2023-07-13T11:54:32;3.40;;;1.30;;
64037;SDS011;54641;50.168;8.492;2023-07-13T11:57:15;2.20;;;1.50;;
64037;SDS011;54641;50.168;8.492;2023-07-13T11:59:51;3.10;;;1.30;;
64037;SDS011;54641;50.168;8.492;2023-07-13T12:02:26;3.20;;;1.30;;
64037;SDS011;54641;50.168;8.492;2023-07-13T12:04:59;2.50;;;1.10;;
64037;SDS011;54641;50.168;8.492;2023-07-13T12:07:32;3.10;;;1.30;;
64037;SDS011;54641;50.168;8.492;2023-07-13T12:10:13;2.90;;;1.20;;
64037;SDS011;54641;50.168;8.492;2023-07-13T12:12:48;4.20;;;1.20;;
64037;SDS011;54641;50.168;8.492;2023-07-13T12:15:20;4.80;;;1.40;;
64037;SDS011;54641;50.168;8.492;2023-07-13T12:17:51;2.60;;;1.20;;
64037;SDS011;54641;50.168;8.492;2023-07-13T12:20:25;5.80;;;2.10;;
64037;SDS011;54641;50.168;8.492;2023-07-13T12:25:25;4.60;;;2.30;;
64037;SDS011;54641;50.168;8.492;2023-07-13T12:27:56;4.50;;;2.00;;
64037;SDS011;54641;50.168;8.492;2023-07-13T12:34:02;3.80;;;1.70;;
64037;SDS011;54641;50.168;8.492;2023-07-13T12:36:36;3.60;;;1.60;;
64037;SDS011;54641;50.168;8.492;2023-07-13T12:39:17;3.40;;;1.50;;
64037;SDS011;54641;50.168;8.492;2023-07-13T12:41:51;5.10;;;1.50;;
64037;SDS011;54641;50.168;8.492;2023-07-13T12:44:24;2.80;;;1.50;;
64037;SDS011;54641;50.168;8.492;2023-07-13T12:46:57;3.70;;;1.50;;
64037;SDS011;54641;50.168;8.492;2023-07-13T12:49:33;2.90;;;1.20;;
64037;SDS011;54641;50.168;8.492;2023-07-13T12:52:12;2.90;;;1.40;;
64037;SDS011;54641;50.168;8.492;2023-07-13T12:54:53;3.70;;;1.40;;
64037;SDS011;54641;50.168;8.492;2023-07-13T12:57:34;1.90;;;1.30;;
64037;SDS011;54641;50.168;8.492;2023-07-13T13:00:21;1.80;;;1.00;;
64037;SDS011;54641;50.168;8.492;2023-07-13T13:02:53;2.50;;;1.30;;
64037;SDS011;54641;50.168;8.492;2023-07-13T13:05:45;3.40;;;1.30;;
64037;SDS011;54641;50.168;8.492;2023-07-13T13:08:15;3.40;;;1.30;;
64037;SDS011;54641;50.168;8.492;2023-07-13T13:10:45;2.30;;;1.40;;
64037;SDS011;54641;50.168;8.492;2023-07-13T13:13:16;3.90;;;1.40;;
64037;SDS011;54641;50.168;8.492;2023-07-13T13:15:46;4.90;;;1.40;;
64037;SDS011;54641;50.168;8.492;2023-07-13T13:18:17;3.20;;;1.30;;
64037;SDS011;54641;50.168;8.492;2023-07-13T13:20:49;3.00;;;1.50;;
64037;SDS011;54641;50.168;8.492;2023-07-13T13:23:20;3.40;;;1.40;;
64037;SDS011;54641;50.168;8.492;2023-07-13T13:25:51;2.50;;;1.30;;
64037;SDS011;54641;50.168;8.492;2023-07-13T13:28:21;2.70;;;1.20;;
64037;SDS011;54641;50.168;8.492;2023-07-13T13:30:52;4.50;;;1.50;;
64037;SDS011;54641;50.168;8.492;2023-07-13T13:33:22;3.30;;;1.40;;
64037;SDS011;54641;50.168;8.492;2023-07-13T13:35:53;2.90;;;1.30;;
64037;SDS011;54641;50.168;8.492;2023-07-13T13:38:24;3.30;;;1.30;;
64037;SDS011;54641;50.168;8.492;2023-07-13T13:40:55;2.90;;;1.40;;
64037;SDS011;54641;50.168;8.492;2023-07-13T13:43:26;3.90;;;1.40;;
64037;SDS011;54641;50.168;8.492;2023-07-13T13:45:58;3.10;;;1.20;;
64037;SDS011;54641;50.168;8.492;2023-07-13T13:48:30;7.80;;;1.70;;
64037;SDS011;54641;50.168;8.492;2023-07-13T13:51:06;2.50;;;1.40;;
64037;SDS011;54641;50.168;8.492;2023-07-13T13:53:43;3.30;;;1.30;;
64037;SDS011;54641;50.168;8.492;2023-07-13T13:56:16;4.40;;;1.40;;
64037;SDS011;54641;50.168;8.492;2023-07-13T13:58:47;3.00;;;1.70;;
64037;SDS011;54641;50.168;8.492;2023-07-13T14:01:19;4.10;;;1.50;;
64037;SDS011;54641;50.168;8.492;2023-07-13T14:03:52;3.30;;;1.30;;
64037;SDS011;54641;50.168;8.492;2023-07-13T14:06:22;3.30;;;1.30;;
64037;SDS011;54641;50.168;8.492;2023-07-13T14:08:53;2.40;;;1.20;;
64037;SDS011;54641;50.168;8.492;2023-07-13T14:11:24;4.10;;;1.70;;
64037;SDS011;54641;50.168;8.492;2023-07-13T14:13:55;2.90;;;1.40;;
64037;SDS011;54641;50.168;8.492;2023-07-13T14:16:28;4.70;;;1.30;;
64037;SDS011;54641;50.168;8.492;2023-07-13T14:19:00;5.80;;;1.70;;
64037;SDS011;54641;50.168;8.492;2023-07-13T14:21:31;2.60;;;1.30;;
64037;SDS011;54641;50.168;8.492;2023-07-13T14:24:02;3.20;;;1.30;;
64037;SDS011;54641;50.168;8.492;2023-07-13T14:26:35;2.60;;;1.20;;
64037;SDS011;54641;50.168;8.492;2023-07-13T14:29:14;5.10;;;1.50;;
64037;SDS011;54641;50.168;8.492;2023-07-13T14:31:51;3.60;;;1.50;;
64037;SDS011;54641;50.168;8.492;2023-07-13T14:34:21;3.70;;;1.70;;
64037;SDS011;54641;50.168;8.492;2023-07-13T14:36:52;3.30;;;1.70;;
64037;SDS011;54641;50.168;8.492;2023-07-13T14:39:24;4.40;;;1.40;;
64037;SDS011;54641;50.168;8.492;2023-07-13T14:41:55;3.30;;;1.40;;
64037;SDS011;54641;50.168;8.492;2023-07-13T14:44:28;3.40;;;1.40;;
64037;SDS011;54641;50.168;8.492;2023-07-13T14:46:59;2.60;;;1.50;;
64037;SDS011;54641;50.168;8.492;2023-07-13T14:49:32;4.80;;;1.40;;
64037;SDS011;54641;50.168;8.492;2023-07-13T14:52:09;3.70;;;1.40;;
64037;SDS011;54641;50.168;8.492;2023-07-13T14:54:42;2.50;;;1.30;;
64037;SDS011;54641;50.168;8.492;2023-07-13T14:57:14;4.30;;;1.50;;
64037;SDS011;54641;50.168;8.492;2023-07-13T14:59:46;2.10;;;1.40;;
64037;SDS011;54641;50.168;8.492;2023-07-13T15:02:18;5.90;;;1.80;;
64037;SDS011;54641;50.168;8.492;2023-07-13T15:04:51;4.90;;;1.50;;
64037;SDS011;54641;50.168;8.492;2023-07-13T15:07:22;2.40;;;1.10;;
64037;SDS011;54641;50.168;8.492;2023-07-13T15:09:52;3.50;;;1.40;;
64037;SDS011;54641;50.168;8.492;2023-07-13T15:12:22;3.00;;;1.30;;
64037;SDS011;54641;50.168;8.492;2023-07-13T15:14:53;2.80;;;1.50;;
64037;SDS011;54641;50.168;8.492;2023-07-13T15:17:26;3.00;;;1.30;;
64037;SDS011;54641;50.168;8.492;2023-07-13T15:20:00;3.00;;;1.30;;
64037;SDS011;54641;50.168;8.492;2023-07-13T15:22:32;3.40;;;1.30;;
64037;SDS011;54641;50.168;8.492;2023-07-13T15:25:07;3.90;;;1.20;;
64037;SDS011;54641;50.168;8.492;2023-07-13T15:27:43;2.70;;;1.20;;
64037;SDS011;54641;50.168;8.492;2023-07-13T15:30:14;3.30;;;1.50;;
64037;SDS011;54641;50.168;8.492;2023-07-13T15:32:45;2.10;;;1.20;;
64037;SDS011;54641;50.168;8.492;2023-07-13T15:35:16;4.60;;;1.40;;
64037;SDS011;54641;50.168;8.492;2023-07-13T15:37:48;3.50;;;1.60;;
64037;SDS011;54641;50.168;8.492;2023-07-13T15:40:19;4.20;;;1.30;;
64037;SDS011;54641;50.168;8.492;2023-07-13T15:42:51;3.00;;;1.40;;
64037;SDS011;54641;50.168;8.492;2023-07-13T15:45:22;3.50;;;1.10;;
64037;SDS011;54641;50.168;8.492;2023-07-13T15:47:53;1.50;;;1.10;;
64037;SDS011;54641;50.168;8.492;2023-07-13T15:50:24;3.10;;;1.20;;